createdAt,value
2023-01-06T00:00:23.460Z,4.11
2023-01-06T00:01:23.409Z,4.13
2023-01-06T00:02:23.500Z,4.12
2023-01-06T00:03:23.493Z,4.13
2023-01-06T00:04:23.506Z,4.13
2023-01-06T00:05:23.555Z,4.13
2023-01-06T00:06:23.592Z,4.12
2023-01-06T00:07:23.624Z,4.12
2023-01-06T00:08:23.664Z,4.14
2023-01-06T00:09:23.706Z,4.14
2023-01-06T00:10:23.806Z,4.12
2023-01-06T00:11:23.805Z,4.12
2023-01-06T00:12:23.816Z,4.12
2023-01-06T00:13:23.861Z,4.11
2023-01-06T00:14:23.893Z,4.11
2023-01-06T00:15:23.940Z,4.12
2023-01-06T00:16:23.984Z,4.1
2023-01-06T00:17:24.005Z,4.11
2023-01-06T00:18:24.067Z,4.11
2023-01-06T00:19:24.091Z,4.11
2023-01-06T00:20:24.128Z,4.11
2023-01-06T00:21:24.156Z,4.13
2023-01-06T00:22:24.188Z,4.13
2023-01-06T00:23:24.241Z,4.13
2023-01-06T00:24:24.266Z,4.14
2023-01-06T00:25:24.298Z,4.14
2023-01-06T00:26:24.342Z,4.17
2023-01-06T00:27:24.359Z,4.17
2023-01-06T00:28:24.398Z,4.17
2023-01-06T00:29:24.420Z,4.18
2023-01-06T00:30:24.470Z,4.18
2023-01-06T00:31:24.580Z,4.2
2023-01-06T00:32:24.535Z,4.21
2023-01-06T00:33:24.583Z,4.21
2023-01-06T00:34:24.615Z,4.22
2023-01-06T00:35:24.663Z,4.2
2023-01-06T00:36:24.679Z,4.21
2023-01-06T00:37:24.713Z,4.21
2023-01-06T00:38:24.755Z,4.21
2023-01-06T00:39:24.779Z,4.21
2023-01-06T00:40:24.815Z,4.22
2023-01-06T00:41:24.853Z,4.23
2023-01-06T00:42:24.988Z,4.24
2023-01-06T00:43:24.941Z,4.24
2023-01-06T00:44:24.975Z,4.25
2023-01-06T00:45:25.001Z,4.25
2023-01-06T00:46:25.069Z,4.27
2023-01-06T00:47:25.109Z,4.27
2023-01-06T00:48:25.113Z,4.26
2023-01-06T00:49:25.143Z,4.28
2023-01-06T00:50:25.184Z,4.27
2023-01-06T00:51:25.223Z,4.27
2023-01-06T00:52:25.269Z,4.28
2023-01-06T00:53:25.280Z,4.28
2023-01-06T00:54:25.318Z,4.31
2023-01-06T00:55:25.355Z,4.3
2023-01-06T00:56:25.386Z,4.3
2023-01-06T00:57:25.416Z,4.29
2023-01-06T00:58:25.457Z,4.31
2023-01-06T00:59:25.498Z,4.28
2023-01-06T01:00:25.527Z,4.29
2023-01-06T01:01:25.715Z,4.3
2023-01-06T01:02:25.866Z,4.3
2023-01-06T01:03:25.651Z,4.3
2023-01-06T01:04:25.655Z,4.29
2023-01-06T01:05:25.697Z,4.3
2023-01-06T01:06:25.726Z,4.3
2023-01-06T01:07:25.767Z,4.31
2023-01-06T01:08:25.834Z,4.32
2023-01-06T01:09:25.860Z,4.3
2023-01-06T01:10:25.872Z,4.27
2023-01-06T01:11:25.918Z,4.28
2023-01-06T01:12:25.973Z,4.28
2023-01-06T01:13:25.983Z,4.28
2023-01-06T01:14:26.016Z,4.28
2023-01-06T01:15:26.059Z,4.3
2023-01-06T01:16:26.103Z,4.32
2023-01-06T01:17:26.143Z,4.3
2023-01-06T01:18:26.162Z,4.29
2023-01-06T01:19:26.204Z,4.34
2023-01-06T01:20:26.235Z,4.33
2023-01-06T01:21:26.280Z,4.35
2023-01-06T01:22:26.328Z,4.36
2023-01-06T01:23:26.335Z,4.34
2023-01-06T01:24:26.369Z,4.35
2023-01-06T01:25:26.399Z,4.34
2023-01-06T01:26:26.456Z,4.35
2023-01-06T01:27:26.469Z,4.38
2023-01-06T01:28:26.505Z,4.38
2023-01-06T01:29:26.547Z,4.39
2023-01-06T01:30:26.578Z,4.39
2023-01-06T01:31:26.759Z,4.38
2023-01-06T01:32:26.647Z,4.35
2023-01-06T01:33:26.682Z,4.34
2023-01-06T01:34:26.717Z,4.33
2023-01-06T01:35:26.745Z,4.39
2023-01-06T01:36:26.792Z,4.39
2023-01-06T01:37:26.820Z,4.42
2023-01-06T01:38:26.850Z,4.42
2023-01-06T01:39:26.899Z,4.41
2023-01-06T01:40:26.932Z,4.41
2023-01-06T01:41:26.973Z,4.42
2023-01-06T01:42:27.011Z,4.42
2023-01-06T01:43:27.041Z,4.41
2023-01-06T01:44:27.089Z,4.41
2023-01-06T01:45:27.126Z,4.4
2023-01-06T01:46:27.289Z,4.4
2023-01-06T01:47:27.209Z,4.4
2023-01-06T01:48:27.233Z,4.39
2023-01-06T01:49:27.267Z,4.44
2023-01-06T01:50:27.295Z,4.45
2023-01-06T01:51:27.331Z,4.44
2023-01-06T01:52:27.372Z,4.44
2023-01-06T01:53:27.404Z,4.43
2023-01-06T01:54:27.433Z,4.43
2023-01-06T01:55:27.475Z,4.43
2023-01-06T01:56:27.505Z,4.43
2023-01-06T01:57:27.572Z,4.44
2023-01-06T01:58:27.567Z,4.42
2023-01-06T01:59:27.612Z,4.41
2023-01-06T02:00:27.650Z,4.41
2023-01-06T02:01:27.832Z,4.42
2023-01-06T02:02:27.877Z,4.42
2023-01-06T02:03:27.754Z,4.42
2023-01-06T02:04:27.792Z,4.43
2023-01-06T02:05:27.817Z,4.43
2023-01-06T02:06:27.868Z,4.44
2023-01-06T02:07:27.890Z,4.49
2023-01-06T02:08:27.963Z,4.49
2023-01-06T02:09:27.966Z,4.49
2023-01-06T02:10:28.011Z,4.49
2023-01-06T02:11:28.033Z,4.48
2023-01-06T02:12:28.065Z,4.48
2023-01-06T02:13:28.118Z,4.45
2023-01-06T02:14:28.131Z,4.44
2023-01-06T02:15:28.164Z,4.44
2023-01-06T02:16:28.201Z,4.44
2023-01-06T02:17:28.234Z,4.46
2023-01-06T02:18:28.314Z,4.48
2023-01-06T02:19:28.308Z,4.5
2023-01-06T02:20:28.343Z,4.49
2023-01-06T02:21:28.395Z,4.48
2023-01-06T02:22:28.415Z,4.48
2023-01-06T02:23:28.446Z,4.5
2023-01-06T02:24:28.479Z,4.5
2023-01-06T02:25:28.514Z,4.49
2023-01-06T02:26:28.553Z,4.49
2023-01-06T02:27:28.584Z,4.52
2023-01-06T02:28:28.618Z,4.52
2023-01-06T02:29:28.655Z,4.5
2023-01-06T02:30:28.695Z,4.51
2023-01-06T02:31:28.900Z,4.53
2023-01-06T02:32:28.761Z,4.56
2023-01-06T02:33:28.794Z,4.58
2023-01-06T02:34:28.822Z,4.58
2023-01-06T02:35:28.864Z,4.58
2023-01-06T02:36:28.900Z,4.58
2023-01-06T02:37:28.955Z,4.57
2023-01-06T02:38:29.003Z,4.57
2023-01-06T02:39:29.006Z,4.59
2023-01-06T02:40:29.059Z,4.58
2023-01-06T02:41:29.089Z,4.58
2023-01-06T02:42:29.122Z,4.58
2023-01-06T02:43:29.160Z,4.59
2023-01-06T02:44:29.213Z,4.64
2023-01-06T02:45:29.234Z,4.64
2023-01-06T02:46:29.335Z,4.64
2023-01-06T02:47:29.293Z,4.64
2023-01-06T02:48:29.339Z,4.64
2023-01-06T02:49:29.376Z,4.65
2023-01-06T02:50:29.413Z,4.65
2023-01-06T02:51:29.450Z,4.65
2023-01-06T02:52:29.479Z,4.64
2023-01-06T02:53:29.518Z,4.62
2023-01-06T02:54:29.568Z,4.61
2023-01-06T02:55:29.583Z,4.61
2023-01-06T02:56:29.619Z,4.61
2023-01-06T02:57:29.645Z,4.6
2023-01-06T02:58:29.705Z,4.64
2023-01-06T02:59:29.723Z,4.65
2023-01-06T03:00:29.751Z,4.65
2023-01-06T03:01:29.916Z,4.65
2023-01-06T03:02:29.882Z,4.64
2023-01-06T03:03:29.903Z,4.68
2023-01-06T03:04:29.967Z,4.7
2023-01-06T03:05:29.924Z,4.7
2023-01-06T03:06:29.968Z,4.71
2023-01-06T03:07:29.989Z,4.74
2023-01-06T03:08:30.061Z,4.74
2023-01-06T03:09:30.060Z,4.76
2023-01-06T03:10:30.136Z,4.76
2023-01-06T03:11:30.128Z,4.76
2023-01-06T03:12:30.164Z,4.75
2023-01-06T03:13:30.196Z,4.75
2023-01-06T03:14:30.237Z,4.76
2023-01-06T03:15:30.295Z,4.76
2023-01-06T03:16:30.304Z,4.76
2023-01-06T03:17:30.362Z,4.76
2023-01-06T03:18:30.383Z,4.76
2023-01-06T03:19:30.417Z,4.8
2023-01-06T03:20:30.453Z,4.8
2023-01-06T03:21:30.503Z,4.81
2023-01-06T03:22:30.527Z,4.81
2023-01-06T03:23:30.571Z,4.81
2023-01-06T03:24:30.587Z,4.81
2023-01-06T03:25:30.632Z,4.81
2023-01-06T03:26:30.668Z,4.81
2023-01-06T03:27:30.697Z,4.82
2023-01-06T03:28:30.731Z,4.81
2023-01-06T03:29:30.769Z,4.81
2023-01-06T03:30:30.808Z,4.82
2023-01-06T03:31:30.877Z,4.82
2023-01-06T03:32:30.879Z,4.83
2023-01-06T03:33:30.910Z,4.82
2023-01-06T03:34:30.948Z,4.83
2023-01-06T03:35:30.985Z,4.82
2023-01-06T03:36:31.035Z,4.82
2023-01-06T03:37:31.055Z,4.81
2023-01-06T03:38:31.081Z,4.81
2023-01-06T03:39:31.115Z,4.81
2023-01-06T03:40:31.168Z,4.81
2023-01-06T03:41:31.191Z,4.83
2023-01-06T03:42:36.230Z,4.84
2023-01-06T03:43:31.258Z,4.84
2023-01-06T03:44:31.292Z,4.83
2023-01-06T03:45:31.333Z,4.86
2023-01-06T03:46:31.401Z,4.85
2023-01-06T03:47:31.399Z,4.87
2023-01-06T03:48:31.438Z,4.87
2023-01-06T03:49:31.478Z,4.89
2023-01-06T03:50:31.525Z,4.89
2023-01-06T03:51:31.550Z,4.89
2023-01-06T03:52:31.594Z,4.9
2023-01-06T03:53:31.623Z,4.9
2023-01-06T03:54:31.658Z,4.9
2023-01-06T03:55:31.695Z,4.9
2023-01-06T03:56:31.723Z,4.91
2023-01-06T03:57:31.781Z,4.92
2023-01-06T03:58:31.786Z,4.91
2023-01-06T03:59:31.823Z,4.91
2023-01-06T04:00:31.982Z,4.91
2023-01-06T04:01:31.994Z,4.91
2023-01-06T04:02:31.932Z,4.91
2023-01-06T04:03:32.004Z,4.92
2023-01-06T04:04:31.988Z,4.92
2023-01-06T04:05:32.027Z,4.93
2023-01-06T04:06:32.057Z,4.9
2023-01-06T04:07:32.085Z,4.91
2023-01-06T04:08:32.128Z,4.91
2023-01-06T04:09:32.165Z,4.91
2023-01-06T04:10:32.197Z,4.92
2023-01-06T04:11:32.238Z,4.93
2023-01-06T04:12:32.288Z,4.94
2023-01-06T04:13:32.300Z,4.94
2023-01-06T04:14:32.341Z,4.94
2023-01-06T04:15:32.368Z,4.95
2023-01-06T04:16:32.487Z,4.95
2023-01-06T04:17:32.471Z,4.96
2023-01-06T04:18:32.482Z,4.95
2023-01-06T04:19:32.526Z,4.95
2023-01-06T04:20:32.557Z,4.95
2023-01-06T04:21:32.596Z,4.95
2023-01-06T04:22:32.645Z,4.95
2023-01-06T04:23:32.669Z,4.95
2023-01-06T04:24:32.713Z,4.95
2023-01-06T04:25:32.755Z,4.95
2023-01-06T04:26:32.783Z,4.96
2023-01-06T04:27:32.825Z,4.96
2023-01-06T04:28:32.875Z,4.96
2023-01-06T04:29:32.894Z,4.95
2023-01-06T04:30:32.931Z,4.95
2023-01-06T04:31:35.421Z,4.95
2023-01-06T04:32:33.013Z,4.95
2023-01-06T04:33:33.081Z,4.95
2023-01-06T04:34:33.074Z,4.95
2023-01-06T04:35:33.111Z,4.95
2023-01-06T04:36:33.149Z,4.95
2023-01-06T04:37:33.197Z,4.95
2023-01-06T04:38:33.256Z,4.96
2023-01-06T04:39:33.299Z,4.95
2023-01-06T04:40:33.303Z,4.95
2023-01-06T04:41:33.350Z,4.95
2023-01-06T04:42:33.379Z,4.95
2023-01-06T04:43:33.419Z,4.94
2023-01-06T04:44:33.491Z,4.94
2023-01-06T04:45:33.508Z,4.95
2023-01-06T04:46:33.520Z,4.98
2023-01-06T04:47:33.563Z,4.98
2023-01-06T04:48:33.592Z,4.98
2023-01-06T04:49:33.626Z,4.98
2023-01-06T04:50:33.665Z,4.99
2023-01-06T04:51:33.700Z,4.97
2023-01-06T04:52:33.745Z,5.01
2023-01-06T04:53:33.780Z,5.02
2023-01-06T04:54:33.947Z,5.01
2023-01-06T04:55:33.851Z,5.01
2023-01-06T04:56:33.893Z,5.02
2023-01-06T04:57:33.950Z,5.02
2023-01-06T04:58:33.958Z,5.03
2023-01-06T04:59:34.007Z,5.02
2023-01-06T05:00:34.047Z,5.03
2023-01-06T05:01:34.287Z,5.06
2023-01-06T05:02:34.131Z,5.09
2023-01-06T05:03:34.207Z,5.09
2023-01-06T05:04:43.358Z,5.1
2023-01-06T05:05:34.208Z,5.1
2023-01-06T05:06:34.253Z,5.11
2023-01-06T05:07:34.290Z,5.11
2023-01-06T05:08:34.348Z,5.12
2023-01-06T05:09:34.374Z,5.12
2023-01-06T05:10:34.399Z,5.13
2023-01-06T05:11:34.433Z,5.14
2023-01-06T05:12:34.466Z,5.15
2023-01-06T05:13:34.504Z,5.17
2023-01-06T05:14:34.546Z,5.17
2023-01-06T05:15:34.576Z,5.17
2023-01-06T05:16:34.691Z,5.17
2023-01-06T05:17:34.644Z,5.18
2023-01-06T05:18:34.692Z,5.19
2023-01-06T05:19:34.720Z,5.2
2023-01-06T05:20:34.761Z,5.18
2023-01-06T05:21:34.787Z,5.19
2023-01-06T05:22:34.835Z,5.17
2023-01-06T05:23:34.871Z,5.18
2023-01-06T05:24:34.899Z,5.17
2023-01-06T05:25:34.934Z,5.22
2023-01-06T05:26:34.983Z,5.23
2023-01-06T05:27:35.010Z,5.23
2023-01-06T05:28:35.048Z,5.23
2023-01-06T05:29:35.093Z,5.25
2023-01-06T05:30:35.143Z,5.26
2023-01-06T05:31:35.227Z,5.26
2023-01-06T05:32:35.192Z,5.26
2023-01-06T05:33:35.240Z,5.27
2023-01-06T05:34:35.286Z,5.27
2023-01-06T05:35:35.316Z,5.27
2023-01-06T05:36:35.348Z,5.28
2023-01-06T05:37:35.374Z,5.28
2023-01-06T05:38:35.422Z,5.29
2023-01-06T05:39:35.455Z,5.31
2023-01-06T05:40:35.577Z,5.29
2023-01-06T05:41:35.540Z,5.32
2023-01-06T05:42:35.555Z,5.32
2023-01-06T05:43:35.583Z,5.33
2023-01-06T05:44:35.621Z,5.33
2023-01-06T05:45:35.745Z,5.33
2023-01-06T05:46:35.705Z,5.33
2023-01-06T05:47:35.749Z,5.34
2023-01-06T05:48:35.780Z,5.34
2023-01-06T05:49:35.803Z,5.34
2023-01-06T05:50:35.829Z,5.35
2023-01-06T05:51:35.905Z,5.35
2023-01-06T05:52:35.903Z,5.38
2023-01-06T05:53:35.938Z,5.38
2023-01-06T05:54:35.980Z,5.38
2023-01-06T05:55:36.013Z,5.38
2023-01-06T05:56:36.060Z,5.39
2023-01-06T05:57:36.084Z,5.42
2023-01-06T05:58:36.119Z,5.42
2023-01-06T05:59:36.163Z,5.42
2023-01-06T06:00:36.191Z,5.42
2023-01-06T06:01:36.301Z,5.42
2023-01-06T06:02:36.282Z,5.42
2023-01-06T06:03:36.350Z,5.42
2023-01-06T06:04:36.336Z,5.42
2023-01-06T06:05:36.379Z,5.43
2023-01-06T06:06:36.438Z,5.43
2023-01-06T06:07:36.493Z,5.44
2023-01-06T06:08:36.525Z,5.44
2023-01-06T06:09:36.530Z,5.45
2023-01-06T06:10:36.576Z,5.46
2023-01-06T06:11:36.607Z,5.45
2023-01-06T06:12:36.647Z,5.46
2023-01-06T06:13:36.710Z,5.5
2023-01-06T06:14:36.716Z,5.5
2023-01-06T06:15:36.753Z,5.52
2023-01-06T06:16:36.891Z,5.52
2023-01-06T06:17:36.831Z,5.52
2023-01-06T06:18:36.859Z,5.52
2023-01-06T06:19:36.893Z,5.53
2023-01-06T06:20:36.934Z,5.53
2023-01-06T06:21:36.965Z,5.53
2023-01-06T06:22:37.005Z,5.53
2023-01-06T06:23:37.040Z,5.53
2023-01-06T06:24:37.079Z,5.53
2023-01-06T06:25:37.117Z,5.54
2023-01-06T06:26:37.163Z,5.54
2023-01-06T06:27:37.193Z,5.55
2023-01-06T06:28:37.236Z,5.57
2023-01-06T06:29:37.258Z,5.57
2023-01-06T06:30:37.299Z,5.57
2023-01-06T06:31:37.401Z,5.57
2023-01-06T06:32:37.392Z,5.58
2023-01-06T06:33:37.429Z,5.58
2023-01-06T06:34:37.490Z,5.59
2023-01-06T06:35:37.493Z,5.59
2023-01-06T06:36:37.524Z,5.59
2023-01-06T06:37:37.563Z,5.6
2023-01-06T06:38:37.631Z,5.6
2023-01-06T06:39:37.646Z,5.6
2023-01-06T06:40:37.670Z,5.6
2023-01-06T06:41:37.701Z,5.61
2023-01-06T06:42:37.737Z,5.64
2023-01-06T06:43:37.797Z,5.64
2023-01-06T06:44:37.821Z,5.64
2023-01-06T06:45:37.934Z,5.64
2023-01-06T06:46:37.920Z,5.64
2023-01-06T06:47:37.931Z,5.64
2023-01-06T06:48:37.965Z,5.65
2023-01-06T06:49:38.082Z,5.65
2023-01-06T06:50:38.039Z,5.67
2023-01-06T06:51:38.116Z,5.67
2023-01-06T06:52:38.110Z,5.67
2023-01-06T06:53:38.157Z,5.67
2023-01-06T06:54:38.178Z,5.67
2023-01-06T06:55:38.230Z,5.67
2023-01-06T06:56:38.238Z,5.7
2023-01-06T06:57:38.284Z,5.7
2023-01-06T06:58:38.316Z,5.7
2023-01-06T06:59:38.370Z,5.7
2023-01-06T07:00:38.394Z,5.7
2023-01-06T07:01:38.597Z,5.7
2023-01-06T07:02:38.478Z,5.73
2023-01-06T07:03:38.525Z,5.72
2023-01-06T07:04:38.585Z,5.73
2023-01-06T07:05:38.578Z,5.72
2023-01-06T07:06:38.614Z,5.72
2023-01-06T07:07:38.655Z,5.72
2023-01-06T07:08:38.698Z,5.75
2023-01-06T07:09:38.735Z,5.75
2023-01-06T07:10:38.770Z,5.73
2023-01-06T07:11:38.809Z,5.74
2023-01-06T07:12:38.845Z,5.76
2023-01-06T07:13:38.880Z,5.77
2023-01-06T07:14:38.902Z,5.77
2023-01-06T07:15:38.980Z,5.78
2023-01-06T07:16:38.978Z,5.78
2023-01-06T07:17:39.019Z,5.8
2023-01-06T07:18:39.063Z,5.8
2023-01-06T07:19:39.096Z,5.81
2023-01-06T07:20:39.136Z,5.81
2023-01-06T07:21:39.170Z,5.81
2023-01-06T07:22:39.211Z,5.81
2023-01-06T07:23:39.271Z,5.85
2023-01-06T07:24:39.269Z,5.87
2023-01-06T07:25:39.306Z,5.89
2023-01-06T07:26:39.347Z,5.91
2023-01-06T07:27:39.398Z,5.89
2023-01-06T07:28:39.435Z,5.89
2023-01-06T07:29:39.439Z,5.89
2023-01-06T07:30:39.495Z,5.9
2023-01-06T07:31:39.515Z,5.92
2023-01-06T07:32:39.539Z,5.92
2023-01-06T07:33:39.573Z,5.92
2023-01-06T07:34:39.616Z,5.93
2023-01-06T07:35:39.663Z,5.93
2023-01-06T07:36:39.677Z,5.93
2023-01-06T07:37:39.722Z,5.92
2023-01-06T07:38:39.736Z,5.93
2023-01-06T07:39:39.780Z,5.92
2023-01-06T07:40:39.878Z,5.92
2023-01-06T07:41:39.846Z,5.92
2023-01-06T07:42:39.893Z,5.92
2023-01-06T07:43:39.935Z,5.95
2023-01-06T07:44:39.975Z,5.95
2023-01-06T07:45:40.020Z,5.95
2023-01-06T07:46:40.032Z,5.95
2023-01-06T07:47:40.073Z,5.95
2023-01-06T07:48:40.127Z,5.95
2023-01-06T07:49:40.135Z,5.97
2023-01-06T07:50:40.167Z,5.97
2023-01-06T07:51:40.203Z,5.97
2023-01-06T07:52:40.240Z,5.99
2023-01-06T07:53:40.275Z,6.03
2023-01-06T07:54:40.323Z,6.02
2023-01-06T07:55:40.365Z,6
2023-01-06T07:56:40.390Z,6.01
2023-01-06T07:57:40.417Z,6
2023-01-06T07:58:40.456Z,6
2023-01-06T07:59:40.495Z,6
2023-01-06T08:00:40.531Z,6
2023-01-06T08:01:40.728Z,6.01
2023-01-06T08:02:40.854Z,6.01
2023-01-06T08:03:40.671Z,6.03
2023-01-06T08:04:40.700Z,6.03
2023-01-06T08:05:40.730Z,6.04
2023-01-06T08:06:40.769Z,6.04
2023-01-06T08:07:40.818Z,6.03
2023-01-06T08:08:40.838Z,6.04
2023-01-06T08:09:40.861Z,6.04
2023-01-06T08:10:40.913Z,6.06
2023-01-06T08:11:40.924Z,6.06
2023-01-06T08:12:40.970Z,6.12
2023-01-06T08:13:41.011Z,6.11
2023-01-06T08:14:41.024Z,6.11
2023-01-06T08:15:41.095Z,6.1
2023-01-06T08:16:41.091Z,6.13
2023-01-06T08:17:41.121Z,6.13
2023-01-06T08:18:41.159Z,6.13
2023-01-06T08:19:41.187Z,6.13
2023-01-06T08:20:41.242Z,6.13
2023-01-06T08:21:41.259Z,6.12
2023-01-06T08:22:41.293Z,6.12
2023-01-06T08:23:41.318Z,6.14
2023-01-06T08:24:41.339Z,6.14
2023-01-06T08:25:41.404Z,6.14
2023-01-06T08:26:41.401Z,6.14
2023-01-06T08:27:41.442Z,6.15
2023-01-06T08:28:41.481Z,6.15
2023-01-06T08:29:41.515Z,6.15
2023-01-06T08:30:41.561Z,6.2
2023-01-06T08:31:41.603Z,6.22
2023-01-06T08:32:41.608Z,6.22
2023-01-06T08:33:41.661Z,6.21
2023-01-06T08:34:41.692Z,6.21
2023-01-06T08:35:41.723Z,6.21
2023-01-06T08:36:41.764Z,6.24
2023-01-06T08:37:41.792Z,6.24
2023-01-06T08:38:41.820Z,6.24
2023-01-06T08:39:41.875Z,6.23
2023-01-06T08:40:41.907Z,6.22
2023-01-06T08:41:41.973Z,6.25
2023-01-06T08:42:41.974Z,6.24
2023-01-06T08:43:43.206Z,6.24
2023-01-06T08:44:42.042Z,6.24
2023-01-06T08:45:42.086Z,6.24
2023-01-06T08:46:42.187Z,6.24
2023-01-06T08:47:42.146Z,6.28
2023-01-06T08:48:42.173Z,6.27
2023-01-06T08:49:42.246Z,6.28
2023-01-06T08:50:42.237Z,6.28
2023-01-06T08:51:42.282Z,6.28
2023-01-06T08:52:42.390Z,6.29
2023-01-06T08:53:42.333Z,6.28
2023-01-06T08:54:42.376Z,6.29
2023-01-06T08:55:42.420Z,6.29
2023-01-06T08:56:42.449Z,6.29
2023-01-06T08:57:42.508Z,6.29
2023-01-06T08:58:42.507Z,6.3
2023-01-06T08:59:42.559Z,6.29
2023-01-06T09:00:42.597Z,6.3
2023-01-06T09:01:42.761Z,6.3
2023-01-06T09:02:42.670Z,6.3
2023-01-06T09:03:42.697Z,6.33
2023-01-06T09:04:42.859Z,6.34
2023-01-06T09:05:42.778Z,6.34
2023-01-06T09:06:42.797Z,6.35
2023-01-06T09:07:42.828Z,6.37
2023-01-06T09:08:42.862Z,6.38
2023-01-06T09:09:42.888Z,6.4
2023-01-06T09:10:42.957Z,6.39
2023-01-06T09:11:42.957Z,6.41
2023-01-06T09:12:43.000Z,6.41
2023-01-06T09:13:43.029Z,6.41
2023-01-06T09:14:43.067Z,6.4
2023-01-06T09:15:43.152Z,6.4
2023-01-06T09:16:43.128Z,6.43
2023-01-06T09:17:43.156Z,6.43
2023-01-06T09:18:43.197Z,6.46
2023-01-06T09:19:43.240Z,6.48
2023-01-06T09:20:43.316Z,6.46
2023-01-06T09:21:43.308Z,6.48
2023-01-06T09:22:43.348Z,6.49
2023-01-06T09:23:43.418Z,6.48
2023-01-06T09:24:43.419Z,6.48
2023-01-06T09:25:43.502Z,6.48
2023-01-06T09:26:43.500Z,6.5
2023-01-06T09:27:43.528Z,6.5
2023-01-06T09:28:43.576Z,6.49
2023-01-06T09:29:43.616Z,6.48
2023-01-06T09:30:43.638Z,6.51
2023-01-06T09:31:43.671Z,6.5
2023-01-06T09:32:43.751Z,6.55
2023-01-06T09:33:43.751Z,6.57
2023-01-06T09:34:43.778Z,6.57
2023-01-06T09:35:43.806Z,6.57
2023-01-06T09:36:43.846Z,6.59
2023-01-06T09:37:43.905Z,6.59
2023-01-06T09:38:43.913Z,6.59
2023-01-06T09:39:43.956Z,6.58
2023-01-06T09:40:43.978Z,6.62
2023-01-06T09:41:44.021Z,6.66
2023-01-06T09:42:44.054Z,6.66
2023-01-06T09:43:44.131Z,6.66
2023-01-06T09:44:44.125Z,6.66
2023-01-06T09:45:44.212Z,6.68
2023-01-06T09:46:44.219Z,6.67
2023-01-06T09:47:44.235Z,6.67
2023-01-06T09:48:44.272Z,6.67
2023-01-06T09:49:44.298Z,6.69
2023-01-06T09:50:44.376Z,6.69
2023-01-06T09:51:44.367Z,6.73
2023-01-06T09:52:44.401Z,6.75
2023-01-06T09:53:44.622Z,6.75
2023-01-06T09:54:44.481Z,6.74
2023-01-06T09:55:44.515Z,6.75
2023-01-06T09:56:44.558Z,6.75
2023-01-06T09:57:44.592Z,6.79
2023-01-06T09:58:44.611Z,6.82
2023-01-06T09:59:44.662Z,6.82
2023-01-06T10:00:44.692Z,6.83
2023-01-06T10:01:44.806Z,6.83
2023-01-06T10:02:44.799Z,6.83
2023-01-06T10:03:44.820Z,6.9
2023-01-06T10:04:44.848Z,6.9
2023-01-06T10:05:44.903Z,6.9
2023-01-06T10:06:44.889Z,6.9
2023-01-06T10:07:45.090Z,6.92
2023-01-06T10:08:44.973Z,6.92
2023-01-06T10:09:45.001Z,6.92
2023-01-06T10:10:45.048Z,6.94
2023-01-06T10:11:45.076Z,6.99
2023-01-06T10:12:45.100Z,6.99
2023-01-06T10:13:45.142Z,6.98
2023-01-06T10:14:45.185Z,7
2023-01-06T10:15:45.224Z,6.95
2023-01-06T10:16:45.261Z,6.97
2023-01-06T10:17:45.296Z,6.97
2023-01-06T10:18:45.435Z,7.02
2023-01-06T10:19:45.365Z,7.03
2023-01-06T10:20:45.397Z,7.04
2023-01-06T10:21:45.442Z,7.03
2023-01-06T10:22:45.473Z,7.05
2023-01-06T10:23:45.528Z,7.05
2023-01-06T10:24:45.542Z,7.04
2023-01-06T10:25:45.579Z,7.09
2023-01-06T10:26:45.618Z,7.11
2023-01-06T10:27:45.660Z,7.11
2023-01-06T10:28:45.670Z,7.11
2023-01-06T10:29:45.704Z,7.13
2023-01-06T10:30:45.760Z,7.13
2023-01-06T10:31:45.809Z,7.12
2023-01-06T10:32:45.820Z,7.12
2023-01-06T10:33:45.842Z,7.14
2023-01-06T10:34:45.865Z,7.14
2023-01-06T10:35:45.903Z,7.17
2023-01-06T10:36:45.948Z,7.17
2023-01-06T10:37:45.973Z,7.19
2023-01-06T10:38:46.014Z,7.19
2023-01-06T10:39:46.048Z,7.19
2023-01-06T10:40:46.065Z,7.22
2023-01-06T10:41:46.125Z,7.22
2023-01-06T10:42:46.146Z,7.22
2023-01-06T10:43:46.205Z,7.22
2023-01-06T10:44:46.219Z,7.24
2023-01-06T10:45:46.253Z,7.25
2023-01-06T10:46:46.336Z,7.24
2023-01-06T10:47:46.334Z,7.26
2023-01-06T10:48:46.361Z,7.3
2023-01-06T10:49:46.381Z,7.29
2023-01-06T10:50:46.419Z,7.29
2023-01-06T10:51:46.456Z,7.3
2023-01-06T10:52:46.522Z,7.3
2023-01-06T10:53:46.514Z,7.29
2023-01-06T10:54:46.554Z,7.29
2023-01-06T10:55:46.598Z,7.29
2023-01-06T10:56:46.631Z,7.31
2023-01-06T10:57:46.672Z,7.29
2023-01-06T10:58:46.692Z,7.31
2023-01-06T10:59:46.711Z,7.31
2023-01-06T11:00:46.788Z,7.31
2023-01-06T11:01:46.896Z,7.31
2023-01-06T11:02:46.885Z,7.31
2023-01-06T11:03:46.863Z,7.35
2023-01-06T11:04:46.948Z,7.36
2023-01-06T11:05:46.943Z,7.36
2023-01-06T11:06:46.967Z,7.37
2023-01-06T11:07:47.059Z,7.37
2023-01-06T11:08:47.040Z,7.37
2023-01-06T11:09:47.097Z,7.37
2023-01-06T11:10:47.109Z,7.37
2023-01-06T11:11:47.137Z,7.36
2023-01-06T11:12:47.252Z,7.36
2023-01-06T11:13:47.193Z,7.36
2023-01-06T11:14:47.232Z,7.36
2023-01-06T11:15:47.264Z,7.37
2023-01-06T11:16:47.300Z,7.37
2023-01-06T11:17:47.359Z,7.37
2023-01-06T11:18:47.366Z,7.39
2023-01-06T11:19:47.402Z,7.42
2023-01-06T11:20:47.444Z,7.43
2023-01-06T11:21:47.474Z,7.43
2023-01-06T11:22:47.520Z,7.42
2023-01-06T11:23:47.540Z,7.45
2023-01-06T11:24:47.579Z,7.45
2023-01-06T11:25:47.610Z,7.45
2023-01-06T11:26:47.658Z,7.45
2023-01-06T11:27:47.682Z,7.45
2023-01-06T11:28:47.719Z,7.45
2023-01-06T11:29:47.752Z,7.46
2023-01-06T11:30:47.796Z,7.46
2023-01-06T11:31:47.871Z,7.48
2023-01-06T11:32:47.865Z,7.51
2023-01-06T11:33:47.893Z,7.51
2023-01-06T11:34:47.940Z,7.51
2023-01-06T11:35:47.971Z,7.53
2023-01-06T11:36:48.001Z,7.53
2023-01-06T11:37:48.035Z,7.53
2023-01-06T11:38:48.072Z,7.53
2023-01-06T11:39:51.990Z,7.53
2023-01-06T11:40:48.141Z,7.53
2023-01-06T11:41:48.179Z,7.53
2023-01-06T11:42:48.247Z,7.53
2023-01-06T11:43:50.475Z,7.53
2023-01-06T11:44:48.268Z,7.54
2023-01-06T11:45:48.389Z,7.54
2023-01-06T11:46:48.325Z,7.56
2023-01-06T11:47:48.376Z,7.56
2023-01-06T11:48:48.393Z,7.56
2023-01-06T11:49:48.428Z,7.56
2023-01-06T11:50:48.453Z,7.56
2023-01-06T11:51:48.508Z,7.58
2023-01-06T11:52:48.527Z,7.58
2023-01-06T11:53:48.565Z,7.58
2023-01-06T11:54:48.593Z,7.58
2023-01-06T11:55:48.632Z,7.6
2023-01-06T11:56:48.664Z,7.59
2023-01-06T11:57:48.691Z,7.59
2023-01-06T11:58:48.730Z,7.59
2023-01-06T11:59:48.771Z,7.6
2023-01-06T12:00:48.800Z,7.65
2023-01-06T12:01:49.001Z,7.65
2023-01-06T12:02:48.875Z,7.64
2023-01-06T12:03:48.904Z,7.65
2023-01-06T12:04:48.939Z,7.66
2023-01-06T12:05:48.968Z,7.65
2023-01-06T12:06:49.007Z,7.65
2023-01-06T12:07:49.049Z,7.7
2023-01-06T12:08:49.073Z,7.69
2023-01-06T12:09:49.118Z,7.7
2023-01-06T12:10:49.159Z,7.71
2023-01-06T12:11:49.226Z,7.71
2023-01-06T12:12:49.241Z,7.74
2023-01-06T12:14:08.388Z,7.73
2023-01-06T12:14:49.292Z,7.72
2023-01-06T12:15:49.341Z,7.71
2023-01-06T12:16:49.509Z,7.71
2023-01-06T12:17:49.399Z,7.71
2023-01-06T12:18:49.439Z,7.71
2023-01-06T12:19:49.466Z,7.73
2023-01-06T12:20:49.492Z,7.73
2023-01-06T12:21:49.532Z,7.73
2023-01-06T12:22:49.564Z,7.74
2023-01-06T12:23:49.593Z,7.74
2023-01-06T12:24:49.633Z,7.75
2023-01-06T12:25:49.670Z,7.75
2023-01-06T12:26:49.702Z,7.75
2023-01-06T12:27:49.744Z,7.75
2023-01-06T12:28:49.779Z,7.78
2023-01-06T12:29:49.797Z,7.78
2023-01-06T12:30:49.917Z,7.81
2023-01-06T12:31:49.866Z,7.8
2023-01-06T12:32:49.909Z,7.79
2023-01-06T12:33:49.989Z,7.82
2023-01-06T12:34:50.020Z,7.82
2023-01-06T12:35:49.997Z,7.83
2023-01-06T12:36:50.042Z,7.82
2023-01-06T12:37:50.072Z,7.83
2023-01-06T12:38:50.105Z,7.88
2023-01-06T12:39:50.132Z,7.87
2023-01-06T12:40:50.174Z,7.89
2023-01-06T12:41:50.257Z,7.89
2023-01-06T12:42:50.292Z,7.9
2023-01-06T12:43:50.268Z,7.88
2023-01-06T12:44:50.307Z,7.88
2023-01-06T12:45:57.148Z,7.87
2023-01-06T12:46:50.389Z,7.87
2023-01-06T12:47:50.431Z,7.85
2023-01-06T12:48:50.442Z,7.91
2023-01-06T12:49:50.489Z,7.92
2023-01-06T12:50:50.504Z,7.9
2023-01-06T12:51:50.536Z,7.89
2023-01-06T12:52:50.577Z,7.88
2023-01-06T12:53:50.609Z,7.86
2023-01-06T12:54:50.648Z,7.86
2023-01-06T12:55:50.695Z,7.85
2023-01-06T12:56:50.729Z,7.85
2023-01-06T12:57:50.777Z,7.84
2023-01-06T12:58:50.794Z,7.88
2023-01-06T12:59:50.831Z,7.87
2023-01-06T13:00:50.952Z,7.86
2023-01-06T13:01:50.992Z,7.86
2023-01-06T13:02:50.943Z,7.86
2023-01-06T13:03:51.023Z,7.84
2023-01-06T13:04:51.009Z,7.88
2023-01-06T13:05:51.043Z,7.88
2023-01-06T13:06:51.077Z,7.88
2023-01-06T13:07:51.107Z,7.88
2023-01-06T13:08:51.192Z,7.88
2023-01-06T13:09:51.190Z,7.89
2023-01-06T13:10:51.200Z,7.9
2023-01-06T13:11:51.231Z,7.89
2023-01-06T13:12:51.274Z,7.89
2023-01-06T13:13:51.342Z,7.89
2023-01-06T13:14:51.348Z,7.88
2023-01-06T13:15:51.390Z,7.87
2023-01-06T13:16:51.485Z,7.87
2023-01-06T13:17:51.459Z,7.86
2023-01-06T13:18:51.488Z,7.86
2023-01-06T13:19:51.530Z,7.86
2023-01-06T13:20:51.565Z,7.85
2023-01-06T13:21:51.605Z,7.84